Nearby METAR (Airport) Reports

 

KPRN - Greenville, Alabama, USA
Distance from station: WNW 17mi, 28km
Updated: Wed, 24-May-2017 5:56pm CDT
Partly cloudy
Partly cloudy
 Wind from W
Wind: W 10 mph , 17 km/h
Temperature: 72°F , 22°C
Dew Point: 50°F , 10°C
Humidity: 47%
Barometer: 29.58 inHg , 1001.7 hPa
Clouds: Partly cloudy
Visibility: 10 miles , 16 km
Cloud details: Partly cloudy 9000 ft
2017/05/24 22:56 KPRN 242256Z AUTO 28009KT 10SM SCT090 22/10 A2958 RMK AO2 SLP012 T02220100
KTOI - Troy, Alabama, USA
Distance from station: ENE 21mi, 34km
Updated: Wed, 24-May-2017 5:53pm CDT
Few Clouds
Few Clouds
 Wind from WNW
Wind: WNW 10 mph , 17 km/h
Temperature: 73°F , 23°C
Dew Point: 54°F , 12°C
Humidity: 50%
Barometer: 29.57 inHg , 1001.4 hPa
Clouds: Few Clouds
Visibility: 10 miles , 16 km
Cloud details: Few Clouds 6000 ft
2017/05/24 22:53 KTOI 242253Z AUTO 29009KT 240V310 10SM FEW060 23/12 A2957 RMK AO2 SLP008 T02330122
K79J - Andalusia/Opp Ar, Alabama, USA
Distance from station: S 29mi, 47km
Updated: Wed, 24-May-2017 5:56pm CDT
Few Clouds
Few Clouds
 Wind from W
Wind: W 14 mph , 22 km/h, Gust: 20 mph , 31 km/h
Temperature: 79°F , 26°C
Dew Point: 52°F , 11°C
Humidity: 39%
Barometer: 29.58 inHg , 1001.7 hPa
Clouds: Few Clouds
Visibility: 10 miles , 16 km
Cloud details: Few Clouds 5500 ft
2017/05/24 22:56 K79J 242256Z AUTO 27012G17KT 10SM FEW055 26/11 A2958 RMK AO2 SLP013 T02560111
 
KMGM - Montgomery, Alabama, USA
Distance from station: N 39mi, 63km
Updated: Wed, 24-May-2017 5:53pm CDT
Mostly cloudy
Mostly cloudy
 Wind from W
Wind: W 14 mph , 22 km/h, Gust: 23 mph , 37 km/h
Temperature: 73°F , 23°C
Dew Point: 54°F , 12°C
Humidity: 50%
Barometer: 29.57 inHg , 1001.4 hPa
Clouds: Mostly cloudy
Visibility: 10 miles , 16 km
Cloud details: Few Clouds 4400 ft
Partly cloudy 7500 ft
Mostly cloudy 9000 ft
2017/05/24 22:53 KMGM 242253Z 28012G20KT 10SM FEW044 SCT075 BKN090 23/12 A2957 RMK AO2 SLP011 T02330117
KMXF - Maxwell Afb/Mgm, Alabama, USA
Distance from station: N 44mi, 70km
Updated: Wed, 24-May-2017 5:58pm CDT
Few Clouds
Few Clouds
 Wind from WNW
Wind: WNW 9 mph , 15 km/h
Temperature: 72°F , 22°C
Dew Point: 55°F , 13°C
Humidity: 57%
Barometer: 29.57 inHg , 1001.4 hPa
Clouds: Few Clouds
Visibility: 10 miles , 16 km
Cloud details: Few Clouds 6000 ft
2017/05/24 22:58 KMXF 242258Z AUTO 29008KT 10SM FEW060 22/13 A2957 RMK AO2 SLP015 T02220126
KLOR - Lowe Ahp/Ft. Ruc, Alabama, USA
Distance from station: SE 44mi, 71km
Updated: Wed, 24-May-2017 5:58pm CDT
Clear
Clear
 Wind from W
Wind: W 13 mph , 20 km/h, Gust: 22 mph , 35 km/h
Temperature: 77°F , 25°C
Dew Point: 54°F , 12°C
Humidity: 44%
Barometer: 29.55 inHg , 1000.7 hPa
Clouds: Clear
Visibility: 10 miles , 16 km
2017/05/24 22:58 KLOR 242258Z AUTO 26011G19KT 10SM CLR 25/12 A2955 RMK AO2 SLP988 T02450118
 
KGZH - Evergreen, Alabama, USA
Distance from station: WSW 46mi, 75km
Updated: Wed, 24-May-2017 5:53pm CDT
Few Clouds
Few Clouds
 Wind from W
Wind: W 7 mph , 11 km/h
Temperature: 73°F , 23°C
Dew Point: 52°F , 11°C
Humidity: 47%
Barometer: 29.60 inHg , 1002.4 hPa
Clouds: Few Clouds
Visibility: 10 miles , 16 km
Cloud details: Few Clouds 6000 ft
2017/05/24 22:53 KGZH 242253Z AUTO 26006KT 10SM FEW060 23/11 A2960 RMK AO2 SLP021 T02330111 $
K0J4 - Florala Muni, Alabama, USA
Distance from station: S 47mi, 76km
Updated: Wed, 24-May-2017 5:58pm CDT
Clear
Clear
 Wind from varies
Wind: varies 5 mph , 7 km/h
Temperature: 75°F , 24°C
Dew Point: 50°F , 10°C
Humidity: 41%
Barometer: 29.61 inHg , 1002.7 hPa
Clouds: Clear
Visibility: 10 miles , 16 km
2017/05/24 22:58 K0J4 242258Z AUTO VRB04KT 10SM CLR 24/10 A2961 RMK AO2 SLP022 T02390100 $
KOZR - Ozark/Cairns Aaf, Alabama, USA
Distance from station: SE 49mi, 78km
Updated: Wed, 24-May-2017 5:56pm CDT
Clear
Clear
 Wind from W
Wind: W 16 mph , 26 km/h, Gust: 25 mph , 41 km/h
Temperature: 77°F , 25°C
Dew Point: 55°F , 13°C
Humidity: 47%
Barometer: 29.55 inHg , 1000.7 hPa
Clouds: Clear
Visibility: 10 miles , 16 km
2017/05/24 22:56 KOZR 242256Z AUTO 28014G22KT 10SM CLR 25/13 A2955 RMK AO2 SLP006 T02480133
 
KHEY - Ft Rucker/Hanche, Alabama, USA
Distance from station: ESE 49mi, 79km
Updated: Wed, 24-May-2017 5:58pm CDT
Few Clouds
Few Clouds
 Wind from W
Wind: W 12 mph , 19 km/h, Gust: 23 mph , 37 km/h
Temperature: 75°F , 24°C
Dew Point: 55°F , 13°C
Humidity: 50%
Barometer: 29.54 inHg , 1000.3 hPa
Clouds: Few Clouds
Visibility: 10 miles , 16 km
Cloud details: Few Clouds 5000 ft
2017/05/24 22:58 KHEY 242258Z AUTO 28010G20KT 10SM FEW050 24/13 A2954 RMK AO2 SLP003 T02410132
KDHN - Dothan, Alabama, USA
Distance from station: ESE 61mi, 97km
Updated: Wed, 24-May-2017 5:53pm CDT
Clear
Clear
 Wind from WNW
Wind: WNW 18 mph , 30 km/h, Gust: 29 mph , 46 km/h
Temperature: 79°F , 26°C
Dew Point: 59°F , 15°C
Humidity: 51%
Barometer: 29.56 inHg , 1001 hPa
Clouds: Clear
Visibility: 10 miles , 16 km
2017/05/24 22:53 KDHN 242253Z 29016G25KT 10SM CLR 26/15 A2956 RMK AO2 PK WND 29026/2224 SLP005 T02560150
KCEW - Crestview, Florida, USA
Distance from station: S 66mi, 107km
Updated: Wed, 24-May-2017 5:53pm CDT
Clear
Clear
 Wind from W
Wind: W 16 mph , 26 km/h, Gust: 24 mph , 39 km/h
Temperature: 75°F , 24°C
Dew Point: 48°F , 9°C
Humidity: 39%
Barometer: 29.61 inHg , 1002.7 hPa
Clouds: Clear
Visibility: 10 miles , 16 km
2017/05/24 22:53 KCEW 242253Z AUTO 28014G21KT 10SM CLR 24/09 A2961 RMK AO2 SLP023 T02440094
 
KEUF - Eufaula, Alabama, USA
Distance from station: ENE 73mi, 118km
Updated: Wed, 24-May-2017 5:58pm CDT
Few Clouds
Few Clouds
 Wind from W
Wind: W 8 mph , 13 km/h, Gust: 22 mph , 35 km/h
Temperature: 79°F , 26°C
Dew Point: 57°F , 14°C
Humidity: 48%
Barometer: 29.51 inHg , 999.3 hPa
Clouds: Few Clouds
Visibility: 10 miles , 16 km
Cloud details: Few Clouds 5000 ft
2017/05/24 22:58 KEUF 242258Z AUTO 27007G19KT 240V300 10SM FEW050 26/14 A2951 RMK AO2 SLP990 T02610139
KJKA - Gulf Shores, Alabama, USA
Distance from station: SSW 132mi, 212km
Updated: Wed, 24-May-2017 6:15pm CDT
Mostly cloudy
Mostly cloudy
 Wind from W
Wind: W 8 mph , 13 km/h
Temperature: 73°F , 23°C
Dew Point: 54°F , 12°C
Humidity: 50%
Barometer: 29.64 inHg , 1003.7 hPa
Clouds: Mostly cloudy
Visibility: 10 miles , 16 km
Cloud details: Partly cloudy 6000 ft
Partly cloudy 7000 ft
Mostly cloudy 8500 ft
2017/05/24 23:15 KJKA 242315Z AUTO 28007KT 10SM SCT060 SCT070 BKN085 23/12 A2964 RMK AO2 T02320119
KLSF - Ft Benning/Colum, Georgia, USA
Distance from station: SNE 89mi, 143km
Updated: Wed, 24-May-2017 5:58pm CDT
Few Clouds
Few Clouds
 Wind from W
Wind: W 12 mph , 19 km/h, Gust: 21 mph , 33 km/h
Temperature: 77°F , 25°C
Dew Point: 57°F , 14°C
Humidity: 51%
Barometer: 29.50 inHg , 999 hPa
Clouds: Few Clouds
Visibility: 10 miles , 16 km
Cloud details: Few Clouds 6000 ft
2017/05/24 22:58 KLSF 242258Z AUTO 27010G18KT 10SM FEW060 25/14 A2950 RMK AO2 SLP993 T02510135
 
KMOB - Mobile/Bates, Alabama, USA
Distance from station: SW 125mi, 202km
Updated: Wed, 24-May-2017 5:56pm CDT
Mostly cloudy
Mostly cloudy
 Wind from W
Wind: W 5 mph , 7 km/h
Temperature: 72°F , 22°C
Dew Point: 54°F , 12°C
Humidity: 53%
Barometer: 29.65 inHg , 1004.1 hPa
Clouds: Mostly cloudy
Visibility: 10 miles , 16 km
Cloud details: Few Clouds 6000 ft
Partly cloudy 7500 ft
Mostly cloudy 9000 ft
2017/05/24 22:56 KMOB 242256Z 28004KT 10SM FEW060 SCT075 BKN090 22/12 A2965 RMK AO2 SLP036 T02220122
KNMM - Meridian Nas, Mississippi, USA
Distance from station: WNW 151mi, 243km
Updated: Wed, 24-May-2017 5:56pm CDT
Mostly cloudy
Mostly cloudy
 Wind from NW
Wind: NW 8 mph , 13 km/h
Temperature: 68°F , 20°C
Dew Point: 54°F , 12°C
Humidity: 60%
Barometer: 29.62 inHg , 1003 hPa
Clouds: Mostly cloudy
Visibility: 10 miles , 16 km
Cloud details: Partly cloudy 5500 ft
Mostly cloudy 10000 ft
2017/05/24 22:56 KNMM 242256Z 32007KT 10SM SCT055 BKN100 20/12 A2962 RMK AO2 SLP037 T02000122 $
KQHY - Hurlbert (Ft Walton Bch), Florida, USA
Distance from station: S 94mi, 151km
Updated: Wed, 17-May-2017 8:56am CDT
NOT Current
Clear
Clear
 Wind from SSE
Wind: SSE 5 mph , 7 km/h
Temperature: 79°F , 26°C
Dew Point: 73°F , 23°C
Humidity: 84%
Barometer: 30.05 inHg , 1017.6 hPa
Clouds: Clear
Visibility: 10 miles , 16 km
2017/05/17 13:56 KQHY 171356Z AUTO 15004KT 10SM CLR 26/23 A3005 RMK AO2 SLP182 T02640233 $
 
KTCL - Tuscaloosa, Alabama, USA
Distance from station: NNW 129mi, 207km
Updated: Wed, 24-May-2017 5:53pm CDT
Overcast
Overcast
 Wind from WNW
Wind: WNW 8 mph , 13 km/h
Temperature: 63°F , 17°C
Dew Point: 55°F , 13°C
Humidity: 77%
Barometer: 29.60 inHg , 1002.4 hPa
Clouds: Overcast
Visibility: 10 miles , 16 km
Cloud details: Overcast 12000 ft
2017/05/24 22:53 KTCL 242253Z 30007KT 10SM OVC120 17/13 A2960 RMK AO2 PK WND 30026/2154 RAE25 SLP022 P0002 T01670128 $
KECP - Panama City, Florida, USA
Distance from station: SSE 122mi, 196km
Updated: Wed, 24-May-2017 5:53pm CDT
Clear
Clear
 Wind from SW
Wind: SW 17 mph , 28 km/h, Gust: 30 mph , 48 km/h
Temperature: 75°F , 24°C
Dew Point: 63°F , 17°C
Humidity: 65%
Barometer: 29.55 inHg , 1000.7 hPa
Clouds: Clear
Visibility: 10 miles , 16 km
2017/05/24 22:53 KECP 242253Z 23015G26KT 10SM CLR 24/17 A2955 RMK AO2 PK WND 22030/2206 SLP018 T02440167
KCBM - Columbus Afb, Mississippi, USA
Distance from station: NW 175mi, 282km
Updated: Wed, 24-May-2017 5:58pm CDT
Overcast
Overcast
 Wind from W
Wind: W 8 mph , 13 km/h
Temperature: 61°F , 16°C
Dew Point: 57°F , 14°C
Humidity: 88%
Barometer: 29.60 inHg , 1002.4 hPa
Clouds: Overcast
Visibility: 10 miles , 16 km
Cloud details: Partly cloudy 7000 ft
Overcast 10000 ft
2017/05/24 22:58 KCBM 242258Z AUTO 27007KT 10SM SCT070 OVC100 16/14 A2960 RMK AO2 PK WND 30027/19 RAB16E32 SLP025 P0006 T01550143 $
 
KBHM - Birmingham, Alabama, USA
Distance from station: N 132mi, 212km
Updated: Wed, 24-May-2017 6:14pm CDT
Heavy rain, Mist, Overcast
Heavy rain, Mist, Overcast
 Wind from W
Wind: W 14 mph , 22 km/h, Gust: 26 mph , 43 km/h
Temperature: 59°F , 15°C
Dew Point: 55°F , 13°C
Humidity: 88%
Barometer: 29.61 inHg , 1002.7 hPa
Summary: Heavy rain, Mist
Clouds: Overcast
Visibility: 2 miles , 3 km
Cloud details: Partly cloudy 3100 ft
Mostly cloudy 4300 ft
Overcast 7500 ft
2017/05/24 23:14 KBHM 242314Z 28012G23KT 2SM +RA BR SCT031 BKN043 OVC075 15/13 A2961 RMK AO2 PK WND 28030/2304 RAB04 P0008 T01500133
KAAF - Apalachicola, Florida, USA
Distance from station: SSE 156mi, 250km
Updated: Wed, 24-May-2017 5:53pm CDT
Partly cloudy
Partly cloudy
 Wind from W
Wind: W 15 mph , 24 km/h
Temperature: 77°F , 25°C
Dew Point: 70°F , 21°C
Humidity: 79%
Barometer: 29.60 inHg , 1002.4 hPa
Clouds: Partly cloudy
Visibility: 10 miles , 16 km
Cloud details: Partly cloudy 2800 ft
2017/05/24 22:53 KAAF 242253Z AUTO 27013KT 10SM SCT028 25/21 A2960 RMK AO2 SLP023 T02500211 TSNO
KATL - Atlanta, Georgia, USA
Distance from station: NE 177mi, 287km
Updated: Wed, 24-May-2017 5:52pm CDT
Partly cloudy
Partly cloudy
 Wind from W
Wind: W 13 mph , 20 km/h, Gust: 25 mph , 41 km/h
Temperature: 73°F , 23°C
Dew Point: 52°F , 11°C
Humidity: 47%
Barometer: 29.49 inHg , 998.6 hPa
Clouds: Partly cloudy
Visibility: 10 miles , 16 km
Cloud details: Partly cloudy 5000 ft
Partly cloudy 25000 ft
2017/05/24 22:52 KATL 242252Z 26011G22KT 10SM SCT050 SCT250 23/11 A2949 RMK AO2 SLP977 T02280111
 
KGPT - Gulfport, Mississippi, USA
Distance from station: SW 192mi, 309km
Updated: Wed, 24-May-2017 5:53pm CDT
Clear
Clear
 Wind from WNW
Wind: WNW 17 mph , 28 km/h, Gust: 22 mph , 35 km/h
Temperature: 77°F , 25°C
Dew Point: 48°F , 9°C
Humidity: 36%
Barometer: 29.64 inHg , 1003.7 hPa
Clouds: Clear
Visibility: 10 miles , 16 km
2017/05/24 22:53 KGPT 242253Z 30015G19KT 10SM CLR 25/09 A2964 RMK AO2 SLP038 T02500094
KNEW - New Orleans/Lake, Louisiana, USA
Distance from station: SW 255mi, 410km
Updated: Wed, 24-May-2017 5:53pm CDT
Partly cloudy
Partly cloudy
 Wind from WNW
Wind: WNW 17 mph , 28 km/h
Temperature: 75°F , 24°C
Dew Point: 54°F , 12°C
Humidity: 47%
Barometer: 29.69 inHg , 1005.4 hPa
Clouds: Partly cloudy
Visibility: 10 miles , 16 km
Cloud details: Few Clouds 6500 ft
Partly cloudy 8000 ft
2017/05/24 22:53 KNEW 242253Z 30015KT 10SM FEW065 SCT080 24/12 A2969 RMK AO2 SLP047 T02440117
KP92 - Salt Point, Louisiana, USA
Distance from station: SW 347mi, 559km
Updated: Wed, 24-May-2017 5:53pm CDT

 Wind from WNW
Wind: WNW 9 mph , 15 km/h, Gust: 18 mph , 30 km/h
Temperature: 77°F , 25°C
Dew Point: 54°F , 12°C
Humidity: 44%
Barometer: 29.70 inHg , 1005.8 hPa
2017/05/24 22:53 KP92 242253Z AUTO 30008G16KT 25/12 A2970 RMK AO1 SLP057 T02500117 $